sensor_id;sensor_type;location;lat;lon;timestamp;temperature;humidity
13268;DHT22;6702;47.068;15.458;2023-03-20T00:00:00;10.00;74.40
13268;DHT22;6702;47.068;15.458;2023-03-20T00:03:04;10.00;74.40
13268;DHT22;6702;47.068;15.458;2023-03-20T00:06:14;10.00;74.40
13268;DHT22;6702;47.068;15.458;2023-03-20T00:09:18;10.00;74.40
13268;DHT22;6702;47.068;15.458;2023-03-20T00:12:23;10.00;74.40
13268;DHT22;6702;47.068;15.458;2023-03-20T00:15:30;10.00;74.50
13268;DHT22;6702;47.068;15.458;2023-03-20T00:18:34;9.90;76.40
13268;DHT22;6702;47.068;15.458;2023-03-20T00:21:38;9.90;76.70
13268;DHT22;6702;47.068;15.458;2023-03-20T00:24:41;9.90;77.30
13268;DHT22;6702;47.068;15.458;2023-03-20T00:27:45;9.80;77.60
13268;DHT22;6702;47.068;15.458;2023-03-20T00:30:48;9.80;78.10
13268;DHT22;6702;47.068;15.458;2023-03-20T00:33:52;9.90;78.10
13268;DHT22;6702;47.068;15.458;2023-03-20T00:36:58;9.80;78.10
13268;DHT22;6702;47.068;15.458;2023-03-20T00:40:01;9.80;78.40
13268;DHT22;6702;47.068;15.458;2023-03-20T00:43:05;9.90;78.70
13268;DHT22;6702;47.068;15.458;2023-03-20T00:46:12;9.90;78.70
13268;DHT22;6702;47.068;15.458;2023-03-20T00:49:16;9.90;80.50
13268;DHT22;6702;47.068;15.458;2023-03-20T00:52:21;9.90;79.70
13268;DHT22;6702;47.068;15.458;2023-03-20T00:55:26;10.00;78.30
13268;DHT22;6702;47.068;15.458;2023-03-20T00:58:30;10.00;78.20
13268;DHT22;6702;47.068;15.458;2023-03-20T01:01:33;10.00;77.70
13268;DHT22;6702;47.068;15.458;2023-03-20T01:04:40;10.10;77.50
13268;DHT22;6702;47.068;15.458;2023-03-20T01:07:45;10.00;77.40
13268;DHT22;6702;47.068;15.458;2023-03-20T01:10:50;10.00;77.70
13268;DHT22;6702;47.068;15.458;2023-03-20T01:13:54;10.00;77.60
13268;DHT22;6702;47.068;15.458;2023-03-20T01:16:58;10.00;77.40
13268;DHT22;6702;47.068;15.458;2023-03-20T01:20:01;10.00;77.80
13268;DHT22;6702;47.068;15.458;2023-03-20T01:23:05;10.00;77.90
13268;DHT22;6702;47.068;15.458;2023-03-20T01:26:20;10.00;79.20
13268;DHT22;6702;47.068;15.458;2023-03-20T01:29:25;10.00;79.60
13268;DHT22;6702;47.068;15.458;2023-03-20T01:32:29;10.00;79.70
13268;DHT22;6702;47.068;15.458;2023-03-20T01:35:32;9.90;80.20
13268;DHT22;6702;47.068;15.458;2023-03-20T01:38:37;9.90;80.10
13268;DHT22;6702;47.068;15.458;2023-03-20T01:41:41;9.90;80.60
13268;DHT22;6702;47.068;15.458;2023-03-20T01:44:46;9.90;80.60
13268;DHT22;6702;47.068;15.458;2023-03-20T01:47:49;9.90;80.60
13268;DHT22;6702;47.068;15.458;2023-03-20T01:50:53;9.90;80.70
13268;DHT22;6702;47.068;15.458;2023-03-20T01:54:00;9.90;80.80
13268;DHT22;6702;47.068;15.458;2023-03-20T01:57:08;9.80;80.80
13268;DHT22;6702;47.068;15.458;2023-03-20T02:00:14;9.90;81.30
13268;DHT22;6702;47.068;15.458;2023-03-20T02:03:18;9.80;81.00
13268;DHT22;6702;47.068;15.458;2023-03-20T02:06:23;9.80;81.00
13268;DHT22;6702;47.068;15.458;2023-03-20T02:09:28;9.70;81.60
13268;DHT22;6702;47.068;15.458;2023-03-20T02:12:32;9.70;81.80
13268;DHT22;6702;47.068;15.458;2023-03-20T02:15:56;9.60;82.00
13268;DHT22;6702;47.068;15.458;2023-03-20T02:18:59;9.50;82.90
13268;DHT22;6702;47.068;15.458;2023-03-20T02:22:28;9.50;83.70
13268;DHT22;6702;47.068;15.458;2023-03-20T02:26:00;9.60;84.20
13268;DHT22;6702;47.068;15.458;2023-03-20T02:36:51;9.40;85.30
13268;DHT22;6702;47.068;15.458;2023-03-20T02:40:10;9.40;85.40
13268;DHT22;6702;47.068;15.458;2023-03-20T02:43:22;9.30;85.50
13268;DHT22;6702;47.068;15.458;2023-03-20T02:46:35;9.30;86.00
13268;DHT22;6702;47.068;15.458;2023-03-20T02:49:49;9.40;86.40
13268;DHT22;6702;47.068;15.458;2023-03-20T02:52:58;9.40;86.60
13268;DHT22;6702;47.068;15.458;2023-03-20T02:56:10;9.40;86.70
13268;DHT22;6702;47.068;15.458;2023-03-20T02:59:21;9.40;86.50
13268;DHT22;6702;47.068;15.458;2023-03-20T03:02:32;9.40;86.50
13268;DHT22;6702;47.068;15.458;2023-03-20T03:05:39;9.40;86.60
13268;DHT22;6702;47.068;15.458;2023-03-20T03:08:48;9.50;86.50
13268;DHT22;6702;47.068;15.458;2023-03-20T03:11:58;9.50;86.70
13268;DHT22;6702;47.068;15.458;2023-03-20T03:15:05;9.50;86.80
13268;DHT22;6702;47.068;15.458;2023-03-20T03:18:13;9.50;87.10
13268;DHT22;6702;47.068;15.458;2023-03-20T03:21:17;9.50;87.50
13268;DHT22;6702;47.068;15.458;2023-03-20T03:24:27;9.50;87.50
13268;DHT22;6702;47.068;15.458;2023-03-20T03:27:46;9.50;87.60
13268;DHT22;6702;47.068;15.458;2023-03-20T03:30:51;9.50;87.70
13268;DHT22;6702;47.068;15.458;2023-03-20T03:33:56;9.60;87.80
13268;DHT22;6702;47.068;15.458;2023-03-20T03:37:03;9.70;87.70
13268;DHT22;6702;47.068;15.458;2023-03-20T03:40:17;9.60;87.60
13268;DHT22;6702;47.068;15.458;2023-03-20T03:43:27;9.60;87.70
13268;DHT22;6702;47.068;15.458;2023-03-20T03:46:38;9.70;88.10
13268;DHT22;6702;47.068;15.458;2023-03-20T03:49:49;9.70;88.10
13268;DHT22;6702;47.068;15.458;2023-03-20T03:52:54;9.70;88.20
13268;DHT22;6702;47.068;15.458;2023-03-20T03:56:03;9.70;88.20
13268;DHT22;6702;47.068;15.458;2023-03-20T03:59:16;9.70;88.30
13268;DHT22;6702;47.068;15.458;2023-03-20T04:02:21;9.70;88.60
13268;DHT22;6702;47.068;15.458;2023-03-20T04:05:27;9.60;88.60
13268;DHT22;6702;47.068;15.458;2023-03-20T04:08:34;9.70;89.00
13268;DHT22;6702;47.068;15.458;2023-03-20T04:11:37;9.70;89.10
13268;DHT22;6702;47.068;15.458;2023-03-20T04:14:42;9.70;89.00
13268;DHT22;6702;47.068;15.458;2023-03-20T04:17:45;9.70;89.10
13268;DHT22;6702;47.068;15.458;2023-03-20T04:20:48;9.60;89.10
13268;DHT22;6702;47.068;15.458;2023-03-20T04:23:52;9.60;89.30
13268;DHT22;6702;47.068;15.458;2023-03-20T04:26:55;9.60;89.70
13268;DHT22;6702;47.068;15.458;2023-03-20T04:30:00;9.60;89.80
13268;DHT22;6702;47.068;15.458;2023-03-20T04:33:03;9.70;89.90
13268;DHT22;6702;47.068;15.458;2023-03-20T04:36:08;9.60;90.00
13268;DHT22;6702;47.068;15.458;2023-03-20T04:39:11;9.70;90.10
13268;DHT22;6702;47.068;15.458;2023-03-20T04:42:14;9.60;90.10
13268;DHT22;6702;47.068;15.458;2023-03-20T04:45:19;9.70;90.20
13268;DHT22;6702;47.068;15.458;2023-03-20T04:48:22;9.70;90.20
13268;DHT22;6702;47.068;15.458;2023-03-20T04:51:25;9.70;90.20
13268;DHT22;6702;47.068;15.458;2023-03-20T04:54:29;9.70;90.20
13268;DHT22;6702;47.068;15.458;2023-03-20T04:57:32;9.70;90.30
13268;DHT22;6702;47.068;15.458;2023-03-20T05:00:37;9.70;90.40
13268;DHT22;6702;47.068;15.458;2023-03-20T05:03:40;9.70;90.50
13268;DHT22;6702;47.068;15.458;2023-03-20T05:06:43;9.80;90.50
13268;DHT22;6702;47.068;15.458;2023-03-20T05:09:49;9.80;90.50
13268;DHT22;6702;47.068;15.458;2023-03-20T05:12:53;9.80;90.50
13268;DHT22;6702;47.068;15.458;2023-03-20T05:15:57;9.80;90.50
13268;DHT22;6702;47.068;15.458;2023-03-20T05:19:00;9.80;90.60
13268;DHT22;6702;47.068;15.458;2023-03-20T05:22:04;9.80;90.60
13268;DHT22;6702;47.068;15.458;2023-03-20T05:25:07;9.80;90.60
13268;DHT22;6702;47.068;15.458;2023-03-20T05:28:10;9.80;90.70
13268;DHT22;6702;47.068;15.458;2023-03-20T05:31:15;9.90;90.80
13268;DHT22;6702;47.068;15.458;2023-03-20T05:34:18;9.80;90.90
13268;DHT22;6702;47.068;15.458;2023-03-20T05:37:21;9.80;90.90
13268;DHT22;6702;47.068;15.458;2023-03-20T05:40:25;9.90;91.00
13268;DHT22;6702;47.068;15.458;2023-03-20T05:43:28;9.90;91.00
13268;DHT22;6702;47.068;15.458;2023-03-20T05:46:32;9.90;91.00
13268;DHT22;6702;47.068;15.458;2023-03-20T05:49:36;9.90;91.00
13268;DHT22;6702;47.068;15.458;2023-03-20T05:52:39;9.90;91.00
13268;DHT22;6702;47.068;15.458;2023-03-20T05:55:42;9.90;91.20
13268;DHT22;6702;47.068;15.458;2023-03-20T05:58:46;10.00;90.90
13268;DHT22;6702;47.068;15.458;2023-03-20T06:01:51;10.00;91.00
13268;DHT22;6702;47.068;15.458;2023-03-20T06:04:54;10.00;91.00
13268;DHT22;6702;47.068;15.458;2023-03-20T06:07:57;10.10;91.00
13268;DHT22;6702;47.068;15.458;2023-03-20T06:11:00;10.10;90.90
13268;DHT22;6702;47.068;15.458;2023-03-20T06:14:04;10.20;90.80
13268;DHT22;6702;47.068;15.458;2023-03-20T06:17:09;10.30;90.80
13268;DHT22;6702;47.068;15.458;2023-03-20T06:20:13;10.30;90.70
13268;DHT22;6702;47.068;15.458;2023-03-20T06:23:16;10.40;90.70
13268;DHT22;6702;47.068;15.458;2023-03-20T06:26:19;10.40;90.70
13268;DHT22;6702;47.068;15.458;2023-03-20T06:29:22;10.50;90.60
13268;DHT22;6702;47.068;15.458;2023-03-20T06:32:27;10.50;90.50
13268;DHT22;6702;47.068;15.458;2023-03-20T06:35:30;10.60;90.40
13268;DHT22;6702;47.068;15.458;2023-03-20T06:38:34;10.60;90.10
13268;DHT22;6702;47.068;15.458;2023-03-20T06:41:38;10.70;90.20
13268;DHT22;6702;47.068;15.458;2023-03-20T06:44:42;10.80;90.20
13268;DHT22;6702;47.068;15.458;2023-03-20T06:47:47;10.90;90.10
13268;DHT22;6702;47.068;15.458;2023-03-20T06:50:50;10.90;89.80
13268;DHT22;6702;47.068;15.458;2023-03-20T06:53:54;11.10;89.40
13268;DHT22;6702;47.068;15.458;2023-03-20T06:56:57;11.20;88.80
13268;DHT22;6702;47.068;15.458;2023-03-20T07:00:01;11.40;88.00
13268;DHT22;6702;47.068;15.458;2023-03-20T07:03:07;11.60;87.00
13268;DHT22;6702;47.068;15.458;2023-03-20T07:06:11;11.80;86.30
13268;DHT22;6702;47.068;15.458;2023-03-20T07:09:14;12.10;85.60
13268;DHT22;6702;47.068;15.458;2023-03-20T07:12:18;12.30;84.30
13268;DHT22;6702;47.068;15.458;2023-03-20T07:15:21;12.50;83.40
13268;DHT22;6702;47.068;15.458;2023-03-20T07:18:27;12.80;82.20
13268;DHT22;6702;47.068;15.458;2023-03-20T07:21:30;13.10;80.60
13268;DHT22;6702;47.068;15.458;2023-03-20T07:24:34;13.30;78.80
13268;DHT22;6702;47.068;15.458;2023-03-20T07:27:37;13.50;78.10
13268;DHT22;6702;47.068;15.458;2023-03-20T07:30:40;13.60;77.90
13268;DHT22;6702;47.068;15.458;2023-03-20T07:33:45;13.60;76.50
13268;DHT22;6702;47.068;15.458;2023-03-20T07:36:48;13.50;76.40
13268;DHT22;6702;47.068;15.458;2023-03-20T07:39:51;13.40;76.60
13268;DHT22;6702;47.068;15.458;2023-03-20T07:42:54;13.40;76.90
13268;DHT22;6702;47.068;15.458;2023-03-20T07:46:00;13.50;76.80
13268;DHT22;6702;47.068;15.458;2023-03-20T07:49:04;13.50;76.50
13268;DHT22;6702;47.068;15.458;2023-03-20T07:52:08;13.50;76.70
13268;DHT22;6702;47.068;15.458;2023-03-20T07:55:11;13.60;76.80
13268;DHT22;6702;47.068;15.458;2023-03-20T07:58:14;13.90;76.50
13268;DHT22;6702;47.068;15.458;2023-03-20T08:01:17;14.20;75.90
13268;DHT22;6702;47.068;15.458;2023-03-20T08:04:22;14.50;74.90
13268;DHT22;6702;47.068;15.458;2023-03-20T08:07:25;14.90;73.80
13268;DHT22;6702;47.068;15.458;2023-03-20T08:10:30;15.50;72.10
13268;DHT22;6702;47.068;15.458;2023-03-20T08:13:33;16.10;69.70
13268;DHT22;6702;47.068;15.458;2023-03-20T08:16:37;16.50;68.00
13268;DHT22;6702;47.068;15.458;2023-03-20T08:19:41;17.00;66.20
13268;DHT22;6702;47.068;15.458;2023-03-20T08:22:44;17.40;63.70
13268;DHT22;6702;47.068;15.458;2023-03-20T08:25:48;18.00;61.90
13268;DHT22;6702;47.068;15.458;2023-03-20T08:28:51;18.80;60.20
13268;DHT22;6702;47.068;15.458;2023-03-20T08:31:54;20.20;57.30
13268;DHT22;6702;47.068;15.458;2023-03-20T08:35:00;21.40;52.70
13268;DHT22;6702;47.068;15.458;2023-03-20T08:38:03;21.30;50.00
13268;DHT22;6702;47.068;15.458;2023-03-20T08:41:07;20.90;49.80
13268;DHT22;6702;47.068;15.458;2023-03-20T08:44:10;20.60;49.90
13268;DHT22;6702;47.068;15.458;2023-03-20T08:47:14;20.40;50.30
13268;DHT22;6702;47.068;15.458;2023-03-20T08:50:19;20.20;50.70
13268;DHT22;6702;47.068;15.458;2023-03-20T08:53:22;20.20;50.60
13268;DHT22;6702;47.068;15.458;2023-03-20T08:56:25;20.00;50.20
13268;DHT22;6702;47.068;15.458;2023-03-20T08:59:29;19.60;51.10
13268;DHT22;6702;47.068;15.458;2023-03-20T09:02:35;19.50;51.10
13268;DHT22;6702;47.068;15.458;2023-03-20T09:05:40;19.80;50.70
13268;DHT22;6702;47.068;15.458;2023-03-20T09:08:43;20.10;50.60
13268;DHT22;6702;47.068;15.458;2023-03-20T09:11:47;21.50;49.80
13268;DHT22;6702;47.068;15.458;2023-03-20T09:14:50;24.10;46.00
13268;DHT22;6702;47.068;15.458;2023-03-20T09:17:53;26.20;40.10
13268;DHT22;6702;47.068;15.458;2023-03-20T09:20:58;26.70;37.30
13268;DHT22;6702;47.068;15.458;2023-03-20T09:24:02;27.20;35.40
13268;DHT22;6702;47.068;15.458;2023-03-20T09:27:05;26.20;35.80
13268;DHT22;6702;47.068;15.458;2023-03-20T09:30:10;25.20;36.80
13268;DHT22;6702;47.068;15.458;2023-03-20T09:33:13;24.50;38.00
13268;DHT22;6702;47.068;15.458;2023-03-20T09:36:18;24.70;39.20
13268;DHT22;6702;47.068;15.458;2023-03-20T09:39:21;25.90;37.10
13268;DHT22;6702;47.068;15.458;2023-03-20T09:42:35;27.30;35.50
13268;DHT22;6702;47.068;15.458;2023-03-20T09:45:48;28.30;32.80
13268;DHT22;6702;47.068;15.458;2023-03-20T09:49:00;27.70;32.20
13268;DHT22;6702;47.068;15.458;2023-03-20T09:52:20;27.10;32.80
13268;DHT22;6702;47.068;15.458;2023-03-20T09:55:30;28.30;32.40
13268;DHT22;6702;47.068;15.458;2023-03-20T09:58:36;30.00;29.60
13268;DHT22;6702;47.068;15.458;2023-03-20T10:01:44;28.80;29.50
13268;DHT22;6702;47.068;15.458;2023-03-20T10:04:51;28.10;30.40
13268;DHT22;6702;47.068;15.458;2023-03-20T10:07:59;27.00;31.50
13268;DHT22;6702;47.068;15.458;2023-03-20T10:11:14;27.20;31.70
13268;DHT22;6702;47.068;15.458;2023-03-20T10:14:28;27.50;31.20
13268;DHT22;6702;47.068;15.458;2023-03-20T10:17:43;27.10;31.40
13268;DHT22;6702;47.068;15.458;2023-03-20T10:20:54;26.30;32.10
13268;DHT22;6702;47.068;15.458;2023-03-20T10:24:02;25.40;33.60
13268;DHT22;6702;47.068;15.458;2023-03-20T10:27:14;24.40;35.00
13268;DHT22;6702;47.068;15.458;2023-03-20T10:30:33;23.30;36.20
13268;DHT22;6702;47.068;15.458;2023-03-20T10:33:49;22.90;37.60
13268;DHT22;6702;47.068;15.458;2023-03-20T10:37:09;22.70;38.00
13268;DHT22;6702;47.068;15.458;2023-03-20T10:40:26;22.20;38.50
13268;DHT22;6702;47.068;15.458;2023-03-20T10:43:34;21.80;39.50
13268;DHT22;6702;47.068;15.458;2023-03-20T10:46:42;21.40;40.00
13268;DHT22;6702;47.068;15.458;2023-03-20T10:49:50;21.20;40.50
13268;DHT22;6702;47.068;15.458;2023-03-20T10:52:55;21.00;40.90
13268;DHT22;6702;47.068;15.458;2023-03-20T10:56:04;20.90;41.00
13268;DHT22;6702;47.068;15.458;2023-03-20T10:59:11;20.90;41.20
13268;DHT22;6702;47.068;15.458;2023-03-20T11:02:20;20.80;41.20
13268;DHT22;6702;47.068;15.458;2023-03-20T11:05:28;20.80;41.60
13268;DHT22;6702;47.068;15.458;2023-03-20T11:08:35;20.80;41.70
13268;DHT22;6702;47.068;15.458;2023-03-20T11:11:40;20.80;40.80
13268;DHT22;6702;47.068;15.458;2023-03-20T11:14:45;20.60;40.70
13268;DHT22;6702;47.068;15.458;2023-03-20T11:17:53;20.40;41.40
13268;DHT22;6702;47.068;15.458;2023-03-20T11:20:57;20.30;41.80
13268;DHT22;6702;47.068;15.458;2023-03-20T11:24:00;20.20;41.40
13268;DHT22;6702;47.068;15.458;2023-03-20T11:27:08;20.00;41.70
13268;DHT22;6702;47.068;15.458;2023-03-20T11:30:13;19.80;42.00
13268;DHT22;6702;47.068;15.458;2023-03-20T11:33:19;19.60;42.50
13268;DHT22;6702;47.068;15.458;2023-03-20T11:36:24;19.50;42.70
13268;DHT22;6702;47.068;15.458;2023-03-20T11:39:30;19.30;42.90
13268;DHT22;6702;47.068;15.458;2023-03-20T11:42:36;19.20;43.20
13268;DHT22;6702;47.068;15.458;2023-03-20T11:45:41;19.20;43.40
13268;DHT22;6702;47.068;15.458;2023-03-20T11:48:45;19.10;43.70
13268;DHT22;6702;47.068;15.458;2023-03-20T11:51:49;19.20;43.80
13268;DHT22;6702;47.068;15.458;2023-03-20T11:54:55;19.20;43.40
13268;DHT22;6702;47.068;15.458;2023-03-20T11:58:02;19.10;43.20
13268;DHT22;6702;47.068;15.458;2023-03-20T12:01:07;19.00;43.40
13268;DHT22;6702;47.068;15.458;2023-03-20T12:04:16;18.90;43.50
13268;DHT22;6702;47.068;15.458;2023-03-20T12:07:23;18.80;44.00
13268;DHT22;6702;47.068;15.458;2023-03-20T12:10:31;18.80;44.00
13268;DHT22;6702;47.068;15.458;2023-03-20T12:13:42;18.80;44.50
13268;DHT22;6702;47.068;15.458;2023-03-20T12:16:49;18.70;44.40
13268;DHT22;6702;47.068;15.458;2023-03-20T12:19:57;18.60;44.80
13268;DHT22;6702;47.068;15.458;2023-03-20T12:23:11;18.60;45.40
13268;DHT22;6702;47.068;15.458;2023-03-20T12:26:19;18.50;46.30
13268;DHT22;6702;47.068;15.458;2023-03-20T12:29:27;18.50;47.00
13268;DHT22;6702;47.068;15.458;2023-03-20T12:32:37;18.40;47.00
13268;DHT22;6702;47.068;15.458;2023-03-20T12:35:46;18.50;47.40
13268;DHT22;6702;47.068;15.458;2023-03-20T12:38:51;18.60;47.70
13268;DHT22;6702;47.068;15.458;2023-03-20T12:42:07;18.70;47.90
13268;DHT22;6702;47.068;15.458;2023-03-20T12:45:19;18.70;46.50
13268;DHT22;6702;47.068;15.458;2023-03-20T12:48:39;18.70;46.50
13268;DHT22;6702;47.068;15.458;2023-03-20T12:51:55;18.80;45.60
13268;DHT22;6702;47.068;15.458;2023-03-20T12:55:11;18.80;45.50
13268;DHT22;6702;47.068;15.458;2023-03-20T12:58:24;18.90;45.40
13268;DHT22;6702;47.068;15.458;2023-03-20T13:01:31;19.00;45.40
13268;DHT22;6702;47.068;15.458;2023-03-20T13:04:46;19.00;44.90
13268;DHT22;6702;47.068;15.458;2023-03-20T13:08:07;19.10;44.60
13268;DHT22;6702;47.068;15.458;2023-03-20T13:11:16;19.10;44.30
13268;DHT22;6702;47.068;15.458;2023-03-20T13:14:25;19.20;44.70
13268;DHT22;6702;47.068;15.458;2023-03-20T13:17:34;19.20;45.00
13268;DHT22;6702;47.068;15.458;2023-03-20T13:20:45;19.30;44.90
13268;DHT22;6702;47.068;15.458;2023-03-20T13:23:57;19.40;44.50
13268;DHT22;6702;47.068;15.458;2023-03-20T13:27:16;19.50;44.60
13268;DHT22;6702;47.068;15.458;2023-03-20T13:30:27;19.50;44.60
13268;DHT22;6702;47.068;15.458;2023-03-20T13:33:42;19.60;44.40
13268;DHT22;6702;47.068;15.458;2023-03-20T13:36:57;19.60;44.40
13268;DHT22;6702;47.068;15.458;2023-03-20T13:40:25;19.70;44.20
13268;DHT22;6702;47.068;15.458;2023-03-20T13:43:32;19.70;43.90
13268;DHT22;6702;47.068;15.458;2023-03-20T13:46:40;19.70;43.50
13268;DHT22;6702;47.068;15.458;2023-03-20T13:49:52;19.70;43.20
13268;DHT22;6702;47.068;15.458;2023-03-20T13:53:02;19.60;43.00
13268;DHT22;6702;47.068;15.458;2023-03-20T13:56:17;19.60;43.30
13268;DHT22;6702;47.068;15.458;2023-03-20T13:59:36;19.80;43.20
13268;DHT22;6702;47.068;15.458;2023-03-20T14:02:53;19.90;42.70
13268;DHT22;6702;47.068;15.458;2023-03-20T14:06:17;20.10;42.80
13268;DHT22;6702;47.068;15.458;2023-03-20T14:09:26;20.20;42.20
13268;DHT22;6702;47.068;15.458;2023-03-20T14:12:31;20.30;42.10
13268;DHT22;6702;47.068;15.458;2023-03-20T14:15:36;20.30;41.90
13268;DHT22;6702;47.068;15.458;2023-03-20T14:18:40;20.50;41.90
13268;DHT22;6702;47.068;15.458;2023-03-20T14:21:48;20.70;41.60
13268;DHT22;6702;47.068;15.458;2023-03-20T14:24:56;20.70;41.30
13268;DHT22;6702;47.068;15.458;2023-03-20T14:28:06;20.70;41.40
13268;DHT22;6702;47.068;15.458;2023-03-20T14:31:17;20.50;41.50
13268;DHT22;6702;47.068;15.458;2023-03-20T14:34:22;20.40;41.80
13268;DHT22;6702;47.068;15.458;2023-03-20T14:37:34;20.30;42.10
13268;DHT22;6702;47.068;15.458;2023-03-20T14:40:42;20.20;42.20
13268;DHT22;6702;47.068;15.458;2023-03-20T14:44:04;20.00;42.30
13268;DHT22;6702;47.068;15.458;2023-03-20T14:47:20;19.70;42.50
13268;DHT22;6702;47.068;15.458;2023-03-20T14:50:29;19.50;42.90
13268;DHT22;6702;47.068;15.458;2023-03-20T14:53:35;19.40;43.30
13268;DHT22;6702;47.068;15.458;2023-03-20T14:56:38;19.30;43.10
13268;DHT22;6702;47.068;15.458;2023-03-20T14:59:41;19.10;43.70
13268;DHT22;6702;47.068;15.458;2023-03-20T15:02:46;19.00;44.00
13268;DHT22;6702;47.068;15.458;2023-03-20T15:05:55;18.90;44.10
13268;DHT22;6702;47.068;15.458;2023-03-20T15:09:05;18.70;44.40
13268;DHT22;6702;47.068;15.458;2023-03-20T15:12:12;18.60;44.40
13268;DHT22;6702;47.068;15.458;2023-03-20T15:15:24;18.60;44.40
13268;DHT22;6702;47.068;15.458;2023-03-20T15:18:28;18.70;44.50
13268;DHT22;6702;47.068;15.458;2023-03-20T15:21:33;18.90;44.30
13268;DHT22;6702;47.068;15.458;2023-03-20T15:24:38;18.90;44.40
13268;DHT22;6702;47.068;15.458;2023-03-20T15:27:42;18.90;44.10
13268;DHT22;6702;47.068;15.458;2023-03-20T15:30:46;18.80;44.00
13268;DHT22;6702;47.068;15.458;2023-03-20T15:33:50;18.80;44.00
13268;DHT22;6702;47.068;15.458;2023-03-20T15:36:55;18.70;44.00
13268;DHT22;6702;47.068;15.458;2023-03-20T15:40:09;18.60;44.30
13268;DHT22;6702;47.068;15.458;2023-03-20T15:43:16;18.60;44.40
13268;DHT22;6702;47.068;15.458;2023-03-20T15:46:25;18.50;44.20
13268;DHT22;6702;47.068;15.458;2023-03-20T15:49:31;18.50;44.30
13268;DHT22;6702;47.068;15.458;2023-03-20T15:52:38;18.40;44.20
13268;DHT22;6702;47.068;15.458;2023-03-20T15:55:48;18.30;44.30
13268;DHT22;6702;47.068;15.458;2023-03-20T15:58:52;18.20;44.50
13268;DHT22;6702;47.068;15.458;2023-03-20T16:01:59;18.10;44.70
13268;DHT22;6702;47.068;15.458;2023-03-20T16:05:07;18.00;44.90
13268;DHT22;6702;47.068;15.458;2023-03-20T16:08:12;17.90;45.40
13268;DHT22;6702;47.068;15.458;2023-03-20T16:11:17;17.70;46.40
13268;DHT22;6702;47.068;15.458;2023-03-20T16:14:24;17.60;47.30
13268;DHT22;6702;47.068;15.458;2023-03-20T16:17:28;17.50;47.70
13268;DHT22;6702;47.068;15.458;2023-03-20T16:20:34;17.40;48.10
13268;DHT22;6702;47.068;15.458;2023-03-20T16:23:40;17.30;48.50
13268;DHT22;6702;47.068;15.458;2023-03-20T16:26:48;17.20;48.70
13268;DHT22;6702;47.068;15.458;2023-03-20T16:29:53;17.10;49.40
13268;DHT22;6702;47.068;15.458;2023-03-20T16:32:59;17.00;49.70
13268;DHT22;6702;47.068;15.458;2023-03-20T16:36:03;16.80;50.40
13268;DHT22;6702;47.068;15.458;2023-03-20T16:39:09;16.80;50.70
13268;DHT22;6702;47.068;15.458;2023-03-20T16:42:23;16.80;50.90
13268;DHT22;6702;47.068;15.458;2023-03-20T16:45:29;16.70;51.10
13268;DHT22;6702;47.068;15.458;2023-03-20T16:48:33;16.70;51.20
13268;DHT22;6702;47.068;15.458;2023-03-20T16:51:42;16.70;51.50
13268;DHT22;6702;47.068;15.458;2023-03-20T16:54:45;16.70;51.70
13268;DHT22;6702;47.068;15.458;2023-03-20T16:57:53;16.50;51.80
13268;DHT22;6702;47.068;15.458;2023-03-20T17:01:00;16.50;52.10
13268;DHT22;6702;47.068;15.458;2023-03-20T17:04:13;16.50;52.00
13268;DHT22;6702;47.068;15.458;2023-03-20T17:07:20;16.40;52.40
13268;DHT22;6702;47.068;15.458;2023-03-20T17:10:27;16.40;52.60
13268;DHT22;6702;47.068;15.458;2023-03-20T17:13:32;16.40;52.80
13268;DHT22;6702;47.068;15.458;2023-03-20T17:16:36;16.30;53.10
13268;DHT22;6702;47.068;15.458;2023-03-20T17:19:41;16.20;53.20
13268;DHT22;6702;47.068;15.458;2023-03-20T17:22:44;16.20;53.70
13268;DHT22;6702;47.068;15.458;2023-03-20T17:25:49;16.20;53.80
13268;DHT22;6702;47.068;15.458;2023-03-20T17:28:55;16.10;54.40
13268;DHT22;6702;47.068;15.458;2023-03-20T17:31:58;16.00;54.50
13268;DHT22;6702;47.068;15.458;2023-03-20T17:35:02;16.10;54.70
13268;DHT22;6702;47.068;15.458;2023-03-20T17:38:13;16.00;54.90
13268;DHT22;6702;47.068;15.458;2023-03-20T17:41:19;16.00;55.00
13268;DHT22;6702;47.068;15.458;2023-03-20T17:44:24;16.00;55.00
13268;DHT22;6702;47.068;15.458;2023-03-20T17:47:29;16.00;55.30
13268;DHT22;6702;47.068;15.458;2023-03-20T17:50:34;15.90;55.60
13268;DHT22;6702;47.068;15.458;2023-03-20T17:53:38;16.00;55.70
13268;DHT22;6702;47.068;15.458;2023-03-20T17:56:42;16.00;55.60
13268;DHT22;6702;47.068;15.458;2023-03-20T17:59:47;15.90;55.90
13268;DHT22;6702;47.068;15.458;2023-03-20T18:02:52;15.90;56.20
13268;DHT22;6702;47.068;15.458;2023-03-20T18:05:56;15.90;56.40
13268;DHT22;6702;47.068;15.458;2023-03-20T18:09:00;15.90;56.50
13268;DHT22;6702;47.068;15.458;2023-03-20T18:12:04;15.90;56.80
13268;DHT22;6702;47.068;15.458;2023-03-20T18:15:11;15.90;57.20
13268;DHT22;6702;47.068;15.458;2023-03-20T18:18:16;15.80;57.30
13268;DHT22;6702;47.068;15.458;2023-03-20T18:21:25;15.80;57.50
13268;DHT22;6702;47.068;15.458;2023-03-20T18:24:30;15.60;58.00
13268;DHT22;6702;47.068;15.458;2023-03-20T18:27:34;15.70;57.80
13268;DHT22;6702;47.068;15.458;2023-03-20T18:30:41;15.80;57.90
13268;DHT22;6702;47.068;15.458;2023-03-20T18:33:46;15.70;58.00
13268;DHT22;6702;47.068;15.458;2023-03-20T18:36:51;15.70;58.30
13268;DHT22;6702;47.068;15.458;2023-03-20T18:39:56;15.60;58.60
13268;DHT22;6702;47.068;15.458;2023-03-20T18:43:02;15.60;58.80
13268;DHT22;6702;47.068;15.458;2023-03-20T18:46:12;15.60;59.00
13268;DHT22;6702;47.068;15.458;2023-03-20T18:49:18;15.50;58.90
13268;DHT22;6702;47.068;15.458;2023-03-20T18:52:24;15.50;59.00
13268;DHT22;6702;47.068;15.458;2023-03-20T18:55:30;15.40;59.50
13268;DHT22;6702;47.068;15.458;2023-03-20T18:58:35;15.30;59.90
13268;DHT22;6702;47.068;15.458;2023-03-20T19:01:41;15.20;60.20
13268;DHT22;6702;47.068;15.458;2023-03-20T19:04:47;15.10;60.00
13268;DHT22;6702;47.068;15.458;2023-03-20T19:07:57;15.10;59.70
13268;DHT22;6702;47.068;15.458;2023-03-20T19:11:03;15.10;60.50
13268;DHT22;6702;47.068;15.458;2023-03-20T19:14:12;15.10;60.40
13268;DHT22;6702;47.068;15.458;2023-03-20T19:17:18;15.10;60.90
13268;DHT22;6702;47.068;15.458;2023-03-20T19:20:31;15.10;61.30
13268;DHT22;6702;47.068;15.458;2023-03-20T19:23:37;15.00;61.50
13268;DHT22;6702;47.068;15.458;2023-03-20T19:26:43;15.00;61.70
13268;DHT22;6702;47.068;15.458;2023-03-20T19:29:49;15.00;62.10
13268;DHT22;6702;47.068;15.458;2023-03-20T19:33:02;14.90;62.30
13268;DHT22;6702;47.068;15.458;2023-03-20T19:36:22;14.90;62.70
13268;DHT22;6702;47.068;15.458;2023-03-20T19:39:28;14.80;63.10
13268;DHT22;6702;47.068;15.458;2023-03-20T19:42:34;14.80;63.40
13268;DHT22;6702;47.068;15.458;2023-03-20T19:46:00;14.70;63.20
13268;DHT22;6702;47.068;15.458;2023-03-20T19:49:15;14.70;63.30
13268;DHT22;6702;47.068;15.458;2023-03-20T19:52:28;14.70;63.90